createdAt,value
2018-02-24T00:01:14.896Z,9.60
2018-02-24T00:03:43.261Z,9.77
2018-02-24T00:06:12.418Z,9.73
2018-02-24T00:08:40.769Z,9.20
2018-02-24T00:11:09.098Z,9.90
2018-02-24T00:13:37.417Z,10.37
2018-02-24T00:16:06.620Z,10.67
2018-02-24T00:18:34.994Z,9.67
2018-02-24T00:21:03.350Z,10.13
2018-02-24T00:23:31.832Z,9.60
2018-02-24T00:26:00.926Z,9.83
2018-02-24T00:28:29.258Z,10.30
2018-02-24T00:30:57.755Z,8.50
2018-02-24T00:33:26.081Z,8.90
2018-02-24T00:35:54.411Z,10.27
2018-02-24T00:38:22.731Z,10.70
2018-02-24T00:40:51.078Z,10.43
2018-02-24T00:43:20.175Z,10.30
2018-02-24T00:45:48.499Z,10.77
2018-02-24T00:48:16.916Z,8.97
2018-02-24T00:50:45.235Z,9.23
2018-02-24T00:53:13.572Z,10.47
2018-02-24T00:55:42.023Z,9.77
2018-02-24T00:58:10.344Z,9.47
2018-02-24T01:00:39.580Z,10.60
2018-02-24T01:03:07.895Z,8.67
2018-02-24T01:05:36.330Z,10.27
2018-02-24T01:08:05.467Z,11.43
2018-02-24T01:10:33.919Z,9.30
2018-02-24T01:13:02.334Z,8.60
2018-02-24T01:15:30.652Z,8.50
2018-02-24T01:17:58.959Z,9.53
2018-02-24T01:20:27.286Z,7.83
2018-02-24T01:22:55.621Z,8.70
2018-02-24T01:25:24.375Z,10.00
2018-02-24T01:27:53.505Z,8.90
2018-02-24T01:30:22.627Z,7.70
2018-02-24T01:32:50.947Z,9.60
2018-02-24T01:35:19.392Z,9.30
2018-02-24T01:37:48.556Z,8.50
2018-02-24T01:40:16.928Z,7.90
2018-02-24T01:42:45.356Z,8.67
2018-02-24T01:45:13.745Z,9.20
2018-02-24T01:47:42.069Z,9.47
2018-02-24T01:50:11.146Z,9.70
2018-02-24T01:52:39.566Z,9.53
2018-02-24T01:55:08.640Z,11.13
2018-02-24T01:57:36.964Z,8.90
2018-02-24T02:00:06.210Z,9.60
2018-02-24T02:02:34.657Z,8.77
2018-02-24T02:05:02.975Z,9.10
2018-02-24T02:07:31.290Z,9.60
2018-02-24T02:09:59.674Z,9.60
2018-02-24T02:12:28.070Z,9.57
2018-02-24T02:14:56.437Z,9.07
2018-02-24T02:17:24.911Z,9.97
2018-02-24T02:19:53.231Z,9.50
2018-02-24T02:22:21.598Z,9.53
2018-02-24T02:24:50.743Z,9.07
2018-02-24T02:27:19.065Z,10.30
2018-02-24T02:29:47.404Z,8.90
2018-02-24T02:32:15.758Z,9.57
2018-02-24T02:34:44.445Z,9.53
2018-02-24T02:37:12.867Z,9.73
2018-02-24T02:39:42.029Z,8.10
2018-02-24T02:42:10.383Z,8.13
2018-02-24T02:44:39.453Z,10.00
2018-02-24T02:47:07.861Z,7.80
2018-02-24T02:49:36.275Z,8.27
2018-02-24T02:52:05.390Z,7.70
2018-02-24T02:54:34.461Z,9.30
2018-02-24T02:57:02.935Z,9.10
2018-02-24T02:59:31.275Z,10.10
2018-02-24T03:02:00.363Z,10.63
2018-02-24T03:04:28.694Z,8.70
2018-02-24T03:06:57.150Z,9.87
2018-02-24T03:09:25.590Z,9.40
2018-02-24T03:11:53.898Z,10.60
2018-02-24T03:14:22.381Z,9.40
2018-02-24T03:16:50.781Z,8.80
2018-02-24T03:19:19.178Z,9.73
2018-02-24T03:21:47.550Z,10.30
2018-02-24T03:24:15.912Z,11.03
2018-02-24T03:26:44.323Z,9.77
2018-02-24T03:29:12.718Z,6.97
2018-02-24T03:31:41.072Z,10.80
2018-02-24T03:34:09.644Z,11.23
2018-02-24T03:36:38.011Z,10.37
2018-02-24T03:39:06.380Z,10.10
2018-02-24T03:41:34.765Z,12.10
2018-02-24T03:44:03.838Z,9.87
2018-02-24T03:46:32.287Z,11.13
2018-02-24T03:49:00.601Z,11.30
2018-02-24T03:51:29.281Z,10.63
2018-02-24T03:53:57.659Z,10.47
2018-02-24T03:56:25.966Z,9.33
2018-02-24T03:58:54.290Z,6.67
2018-02-24T04:01:22.615Z,6.53
2018-02-24T04:03:51.690Z,10.07
2018-02-24T04:06:20.065Z,10.67
2018-02-24T04:08:48.412Z,11.17
2018-02-24T04:11:17.633Z,10.60
2018-02-24T04:13:45.982Z,10.63
2018-02-24T04:16:15.182Z,10.70
2018-02-24T04:18:43.584Z,10.50
2018-02-24T04:21:11.955Z,10.43
2018-02-24T04:23:40.263Z,8.77
2018-02-24T04:26:08.576Z,9.67
2018-02-24T04:28:37.224Z,9.40
2018-02-24T04:31:05.658Z,10.30
2018-02-24T04:33:33.975Z,9.13
2018-02-24T04:36:03.046Z,9.60
2018-02-24T04:38:31.461Z,9.40
2018-02-24T04:41:00.752Z,9.97
2018-02-24T04:43:29.103Z,11.07
2018-02-24T04:45:57.415Z,9.63
2018-02-24T04:48:25.727Z,10.20
2018-02-24T04:50:54.039Z,9.80
2018-02-24T04:53:23.182Z,12.50
2018-02-24T04:55:51.493Z,12.10
2018-02-24T04:58:19.813Z,8.53
2018-02-24T05:00:48.111Z,9.80
2018-02-24T05:03:16.422Z,11.30
2018-02-24T05:05:45.577Z,10.20
2018-02-24T05:08:13.959Z,9.87
2018-02-24T05:10:42.290Z,10.93
2018-02-24T05:13:11.373Z,9.90
2018-02-24T05:15:39.687Z,10.30
2018-02-24T05:18:08.557Z,8.50
2018-02-24T05:20:36.867Z,9.03
2018-02-24T05:23:05.206Z,9.00
2018-02-24T05:25:33.625Z,7.93
2018-02-24T05:28:02.010Z,8.90
2018-02-24T05:30:30.371Z,7.83
2018-02-24T05:32:58.686Z,7.90
2018-02-24T05:35:27.008Z,7.63
2018-02-24T05:37:55.341Z,6.90
2018-02-24T05:40:24.470Z,9.13
2018-02-24T05:42:52.886Z,8.80
2018-02-24T05:45:21.194Z,9.10
2018-02-24T05:47:49.498Z,9.00
2018-02-24T05:50:17.834Z,9.20
2018-02-24T05:52:46.313Z,8.10
2018-02-24T05:55:15.398Z,8.10
2018-02-24T05:57:43.744Z,7.90
2018-02-24T06:00:12.117Z,9.83
2018-02-24T06:02:40.492Z,10.00
2018-02-24T06:05:09.560Z,8.67
2018-02-24T06:07:38.015Z,8.77
2018-02-24T06:10:06.338Z,8.33
2018-02-24T06:12:34.713Z,9.57
2018-02-24T06:15:03.160Z,8.43
2018-02-24T06:17:33.295Z,9.83
2018-02-24T06:20:02.444Z,7.80
2018-02-24T06:22:30.762Z,8.27
2018-02-24T06:24:59.173Z,9.00
2018-02-24T06:27:27.583Z,7.80
2018-02-24T06:29:56.653Z,8.97
2018-02-24T06:32:24.981Z,8.53
2018-02-24T06:34:54.143Z,9.30
2018-02-24T06:37:22.531Z,9.30
2018-02-24T06:39:50.845Z,9.03
2018-02-24T06:42:19.187Z,9.17
2018-02-24T06:44:47.529Z,8.80
2018-02-24T06:47:15.906Z,8.87
2018-02-24T06:49:44.316Z,10.13
2018-02-24T06:52:12.720Z,7.50
2018-02-24T06:54:41.214Z,7.97
2018-02-24T06:57:10.406Z,8.33
2018-02-24T06:59:38.823Z,9.77
2018-02-24T07:02:07.629Z,9.00
2018-02-24T07:04:36.353Z,6.87
2018-02-24T07:07:04.822Z,6.37
2018-02-24T07:09:33.225Z,8.13
2018-02-24T07:12:02.418Z,7.37
2018-02-24T07:14:30.839Z,6.47
2018-02-24T07:16:59.190Z,5.00
2018-02-24T07:19:27.583Z,8.73
2018-02-24T07:21:55.893Z,7.70
2018-02-24T07:24:25.039Z,7.57
2018-02-24T07:26:53.368Z,7.47
2018-02-24T07:29:21.941Z,7.97
2018-02-24T07:31:50.482Z,7.70
2018-02-24T07:34:19.596Z,8.10
2018-02-24T07:36:49.091Z,5.60
2018-02-24T07:39:17.422Z,7.93
2018-02-24T07:41:46.543Z,8.30
2018-02-24T07:44:14.881Z,7.17
2018-02-24T07:46:43.239Z,7.00
2018-02-24T07:49:12.034Z,7.20
2018-02-24T07:51:40.368Z,7.10
2018-02-24T07:54:08.716Z,4.97
2018-02-24T07:56:37.027Z,7.77
2018-02-24T07:59:05.347Z,7.73
2018-02-24T08:01:33.701Z,7.60
2018-02-24T08:04:02.017Z,7.33
2018-02-24T08:06:30.365Z,4.70
2018-02-24T08:08:58.805Z,7.10
2018-02-24T08:11:27.109Z,6.63
2018-02-24T08:13:55.529Z,7.30
2018-02-24T08:16:23.896Z,6.37
2018-02-24T08:18:52.308Z,6.27
2018-02-24T08:21:20.726Z,7.03
2018-02-24T08:23:49.061Z,6.30
2018-02-24T08:26:17.493Z,6.07
2018-02-24T08:28:45.905Z,6.53
2018-02-24T08:31:14.261Z,6.27
2018-02-24T08:33:43.367Z,7.87
2018-02-24T08:36:12.559Z,5.27
2018-02-24T08:38:41.089Z,6.40
2018-02-24T08:41:09.429Z,6.30
2018-02-24T08:43:37.800Z,7.07
2018-02-24T08:46:06.239Z,6.20
2018-02-24T08:48:34.554Z,6.27
2018-02-24T08:51:02.966Z,5.80
2018-02-24T08:53:31.391Z,6.00
2018-02-24T08:55:59.818Z,5.80
2018-02-24T08:58:29.013Z,6.40
2018-02-24T09:00:57.441Z,7.27
2018-02-24T09:03:25.970Z,6.30
2018-02-24T09:05:55.264Z,5.73
2018-02-24T09:08:23.712Z,6.90
2018-02-24T09:10:52.105Z,6.93
2018-02-24T09:13:20.513Z,7.10
2018-02-24T09:15:48.899Z,5.30
2018-02-24T09:18:17.238Z,5.07
2018-02-24T09:20:45.630Z,6.13
2018-02-24T09:23:14.061Z,5.20
2018-02-24T09:25:42.414Z,4.67
2018-02-24T09:28:10.767Z,5.40
2018-02-24T09:30:39.143Z,4.90
2018-02-24T09:33:08.013Z,5.57
2018-02-24T09:35:36.375Z,3.60
2018-02-24T09:38:04.779Z,4.23
2018-02-24T09:40:33.105Z,3.50
2018-02-24T09:43:01.425Z,3.30
2018-02-24T09:45:30.587Z,3.20
2018-02-24T09:47:58.905Z,4.40
2018-02-24T09:50:27.268Z,4.30
2018-02-24T09:53:01.331Z,3.03
2018-02-24T09:55:30.430Z,4.30
2018-02-24T09:57:58.852Z,4.20
2018-02-24T10:00:28.014Z,3.80
2018-02-24T10:02:56.530Z,4.90
2018-02-24T10:05:24.952Z,4.00
2018-02-24T10:07:53.373Z,4.20
2018-02-24T10:10:21.830Z,4.00
2018-02-24T10:12:51.034Z,4.00
2018-02-24T10:15:19.406Z,4.23
2018-02-24T10:17:47.766Z,4.33
2018-02-24T10:20:16.095Z,3.40
2018-02-24T10:22:44.520Z,3.97
2018-02-24T10:25:12.844Z,3.43
2018-02-24T10:27:41.211Z,3.53
2018-02-24T10:30:09.561Z,3.23
2018-02-24T10:32:37.943Z,3.30
2018-02-24T10:35:06.350Z,3.73
2018-02-24T10:37:35.588Z,2.67
2018-02-24T10:40:04.867Z,4.10
2018-02-24T10:42:33.209Z,3.50
2018-02-24T10:45:01.558Z,4.07
2018-02-24T10:47:30.737Z,4.10
2018-02-24T10:49:59.079Z,2.90
2018-02-24T10:52:27.495Z,3.60
2018-02-24T10:54:55.832Z,3.13
2018-02-24T10:57:24.163Z,3.30
2018-02-24T10:59:52.554Z,2.87
2018-02-24T11:02:21.035Z,3.23
2018-02-24T11:04:50.356Z,3.60
2018-02-24T11:07:18.769Z,3.57
2018-02-24T11:09:47.166Z,2.80
2018-02-24T11:12:15.553Z,3.40
2018-02-24T11:14:43.877Z,3.60
2018-02-24T11:17:12.622Z,4.20
2018-02-24T11:19:41.043Z,3.40
2018-02-24T11:22:09.362Z,3.40
2018-02-24T11:24:37.774Z,2.80
2018-02-24T11:27:06.860Z,3.63
2018-02-24T11:29:35.277Z,3.30
2018-02-24T11:32:04.376Z,3.47
2018-02-24T11:34:32.714Z,4.07
2018-02-24T11:37:01.051Z,2.83
2018-02-24T11:39:44.866Z,2.77
2018-02-24T11:42:13.290Z,3.50
2018-02-24T11:44:41.666Z,2.63
2018-02-24T11:47:09.983Z,3.57
2018-02-24T11:49:38.323Z,2.90
2018-02-24T11:52:06.667Z,2.63
2018-02-24T11:54:35.099Z,3.23
2018-02-24T11:57:03.401Z,2.17
2018-02-24T11:59:31.710Z,3.60
2018-02-24T12:02:00.135Z,3.40
2018-02-24T12:04:28.478Z,2.03
2018-02-24T12:06:56.831Z,3.57
2018-02-24T12:09:25.988Z,2.73
2018-02-24T12:11:54.387Z,3.83
2018-02-24T12:14:22.833Z,2.63
2018-02-24T12:16:51.941Z,3.60
2018-02-24T12:19:21.053Z,2.87
2018-02-24T12:21:50.184Z,4.13
2018-02-24T12:24:18.698Z,3.40
2018-02-24T12:26:47.055Z,3.27
2018-02-24T12:29:15.400Z,3.23
2018-02-24T12:31:43.741Z,3.50
2018-02-24T12:34:12.161Z,3.80
2018-02-24T12:36:40.511Z,3.30
2018-02-24T12:39:09.662Z,4.07
2018-02-24T12:41:37.999Z,3.37
2018-02-24T12:44:06.334Z,4.60
2018-02-24T12:46:34.736Z,3.63
2018-02-24T12:49:03.071Z,4.10
2018-02-24T12:51:31.393Z,5.20
2018-02-24T12:53:59.734Z,3.87
2018-02-24T12:56:28.066Z,4.20
2018-02-24T12:58:57.183Z,4.20
2018-02-24T13:01:25.550Z,4.30
2018-02-24T13:03:53.958Z,4.33
2018-02-24T13:06:23.071Z,3.83
2018-02-24T13:08:52.281Z,4.77
2018-02-24T13:11:21.452Z,4.17
2018-02-24T13:13:50.580Z,4.40
2018-02-24T13:16:19.067Z,5.40
2018-02-24T13:18:47.412Z,4.17
2018-02-24T13:21:15.748Z,4.63
2018-02-24T13:23:44.086Z,4.10
2018-02-24T13:26:12.437Z,4.60
2018-02-24T13:28:40.918Z,5.37
2018-02-24T13:31:09.245Z,4.13
2018-02-24T13:33:38.443Z,4.63
2018-02-24T13:36:07.543Z,4.07
2018-02-24T13:38:35.886Z,4.50
2018-02-24T13:41:04.283Z,4.70
2018-02-24T13:43:32.621Z,5.17
2018-02-24T13:46:01.723Z,5.07
2018-02-24T13:48:30.848Z,5.20
2018-02-24T13:51:00.037Z,3.73
2018-02-24T13:53:28.454Z,4.57
2018-02-24T13:55:57.737Z,3.90
2018-02-24T13:58:26.120Z,4.57
2018-02-24T14:00:54.533Z,4.40
2018-02-24T14:03:22.924Z,4.07
2018-02-24T14:05:51.403Z,4.70
2018-02-24T14:08:19.776Z,3.50
2018-02-24T14:10:48.162Z,3.80
2018-02-24T14:13:16.501Z,4.20
2018-02-24T14:15:44.863Z,4.40
2018-02-24T14:18:13.290Z,3.30
2018-02-24T14:20:42.492Z,4.47
2018-02-24T14:23:10.932Z,3.80
2018-02-24T14:25:39.372Z,3.30
2018-02-24T14:28:07.784Z,3.93
2018-02-24T14:30:37.022Z,3.53
2018-02-24T14:33:05.461Z,2.90
2018-02-24T14:35:33.800Z,2.90
2018-02-24T14:38:02.134Z,2.87
2018-02-24T14:40:30.489Z,3.57
2018-02-24T14:42:59.335Z,3.13
2018-02-24T14:45:27.664Z,3.43
2018-02-24T14:47:56.820Z,2.80
2018-02-24T14:50:25.257Z,3.20
2018-02-24T14:52:54.376Z,3.57
2018-02-24T14:55:23.553Z,3.40
2018-02-24T14:57:51.918Z,3.63
2018-02-24T15:00:20.257Z,3.03
2018-02-24T15:02:49.423Z,3.30
2018-02-24T15:05:17.879Z,3.50
2018-02-24T15:07:46.391Z,3.17
2018-02-24T15:10:14.813Z,3.47
2018-02-24T15:12:43.246Z,3.70
2018-02-24T15:15:12.390Z,3.50
2018-02-24T15:17:40.742Z,3.90
2018-02-24T15:20:09.916Z,3.43
2018-02-24T15:22:38.276Z,3.30
2018-02-24T15:25:07.427Z,2.90
2018-02-24T15:27:35.770Z,3.77
2018-02-24T15:30:04.481Z,3.47
2018-02-24T15:32:32.850Z,3.30
2018-02-24T15:35:01.966Z,3.20
2018-02-24T15:37:30.301Z,3.40
2018-02-24T15:39:58.648Z,2.33
2018-02-24T15:42:27.163Z,2.90
2018-02-24T15:44:55.506Z,2.50
2018-02-24T15:47:23.920Z,2.73
2018-02-24T15:49:53.042Z,2.50
2018-02-24T15:52:21.456Z,2.03
2018-02-24T15:54:49.861Z,3.23
2018-02-24T15:57:18.209Z,2.83
2018-02-24T15:59:46.550Z,2.23
2018-02-24T16:02:16.623Z,2.50
2018-02-24T16:04:45.785Z,2.37
2018-02-24T16:07:14.152Z,1.80
2018-02-24T16:09:42.521Z,2.33
2018-02-24T16:12:11.650Z,2.37
2018-02-24T16:14:39.986Z,2.10
2018-02-24T16:17:08.407Z,2.60
2018-02-24T16:19:37.514Z,2.10
2018-02-24T16:22:05.922Z,1.87
2018-02-24T16:24:34.235Z,2.60
2018-02-24T16:27:02.574Z,2.43
2018-02-24T16:29:31.049Z,1.30
2018-02-24T16:31:59.492Z,1.40
2018-02-24T16:34:27.818Z,2.00
2018-02-24T16:36:56.177Z,1.80
2018-02-24T16:39:24.602Z,1.47
2018-02-24T16:41:52.959Z,1.87
2018-02-24T16:44:21.341Z,1.20
2018-02-24T16:46:50.625Z,1.10
2018-02-24T16:49:19.100Z,1.30
2018-02-24T16:51:47.506Z,1.13
2018-02-24T16:54:16.696Z,1.43
2018-02-24T16:56:45.070Z,1.20
2018-02-24T16:59:13.486Z,1.10
2018-02-24T17:01:41.913Z,1.33
2018-02-24T17:04:11.148Z,1.00
2018-02-24T17:06:40.341Z,0.87
2018-02-24T17:09:09.455Z,1.10
2018-02-24T17:11:38.694Z,0.90
2018-02-24T17:14:07.023Z,1.07
2018-02-24T17:16:35.371Z,1.00
2018-02-24T17:19:03.707Z,0.70
2018-02-24T17:21:32.059Z,0.97
2018-02-24T17:24:00.468Z,1.17
2018-02-24T17:26:28.802Z,0.83
2018-02-24T17:28:57.146Z,1.00
2018-02-24T17:31:25.472Z,1.20
2018-02-24T17:33:54.832Z,0.93
2018-02-24T17:36:23.687Z,1.27
2018-02-24T17:38:52.351Z,1.17
2018-02-24T17:41:21.125Z,1.00
2018-02-24T17:43:49.698Z,0.67
2018-02-24T17:46:18.623Z,1.30
2018-02-24T17:48:48.117Z,7.37
2018-02-24T17:51:17.362Z,0.70
2018-02-24T17:53:45.842Z,1.67
2018-02-24T17:56:14.547Z,1.07
2018-02-24T17:58:43.335Z,0.80
2018-02-24T18:01:12.153Z,0.80
2018-02-24T18:03:41.001Z,1.03
2018-02-24T18:06:09.608Z,1.00
2018-02-24T18:08:38.086Z,0.83
2018-02-24T18:11:06.617Z,0.97
2018-02-24T18:13:35.376Z,1.20
2018-02-24T18:16:03.938Z,1.10
2018-02-24T18:18:32.414Z,1.20
2018-02-24T18:21:00.995Z,0.83
2018-02-24T18:23:29.568Z,1.40
2018-02-24T18:25:58.247Z,1.07
2018-02-24T18:28:26.877Z,1.10
2018-02-24T18:30:56.247Z,1.53
2018-02-24T18:33:24.863Z,1.53
2018-02-24T18:35:53.429Z,0.90
2018-02-24T18:38:22.006Z,1.10
2018-02-24T18:40:50.655Z,0.97
2018-02-24T18:43:19.585Z,1.30
2018-02-24T18:45:48.140Z,0.80
2018-02-24T18:48:16.819Z,1.30
2018-02-24T18:50:45.324Z,1.03
2018-02-24T18:53:13.889Z,1.30
2018-02-24T18:55:42.577Z,1.90
2018-02-24T18:58:11.794Z,0.93
2018-02-24T19:00:40.147Z,1.53
2018-02-24T19:03:08.459Z,0.90
2018-02-24T19:05:36.786Z,1.23
2018-02-24T19:08:05.951Z,1.50
2018-02-24T19:10:34.296Z,1.20
2018-02-24T19:13:03.416Z,1.10
2018-02-24T19:15:31.751Z,1.43
2018-02-24T19:18:00.146Z,1.07
2018-02-24T19:20:28.535Z,1.10
2018-02-24T19:22:56.895Z,1.40
2018-02-24T19:25:25.281Z,1.40
2018-02-24T19:27:53.642Z,1.63
2018-02-24T19:30:22.797Z,0.97
2018-02-24T19:32:51.302Z,1.20
2018-02-24T19:35:19.702Z,1.50
2018-02-24T19:37:48.055Z,1.13
2018-02-24T19:40:16.481Z,1.43
2018-02-24T19:42:44.868Z,1.40
2018-02-24T19:45:13.213Z,1.40
2018-02-24T19:47:42.423Z,1.50
2018-02-24T19:50:10.806Z,1.40
2018-02-24T19:52:39.143Z,1.40
2018-02-24T19:55:07.574Z,1.37
2018-02-24T19:57:35.992Z,1.77
2018-02-24T20:00:05.102Z,1.00
2018-02-24T20:02:34.602Z,1.00
2018-02-24T20:05:02.956Z,1.73
2018-02-24T20:07:31.292Z,1.50
2018-02-24T20:10:00.523Z,1.20
2018-02-24T20:12:29.616Z,1.10
2018-02-24T20:14:58.046Z,1.00
2018-02-24T20:17:26.429Z,1.13
2018-02-24T20:19:54.859Z,1.10
2018-02-24T20:22:23.247Z,1.30
2018-02-24T20:24:51.615Z,1.40
2018-02-24T20:27:20.029Z,1.30
2018-02-24T20:29:48.428Z,1.13
2018-02-24T20:32:16.811Z,1.40
2018-02-24T20:34:46.100Z,1.17
2018-02-24T20:37:14.455Z,1.17
2018-02-24T20:39:42.856Z,1.63
2018-02-24T20:42:12.052Z,1.23
2018-02-24T20:44:40.390Z,1.60
2018-02-24T20:47:08.743Z,1.40
2018-02-24T20:49:37.915Z,0.80
2018-02-24T20:52:06.338Z,1.40
2018-02-24T20:54:34.706Z,1.40
2018-02-24T20:57:03.041Z,1.70
2018-02-24T20:59:32.142Z,1.50
2018-02-24T21:02:00.508Z,1.50
2018-02-24T21:04:28.962Z,1.40
2018-02-24T21:06:57.328Z,1.03
2018-02-24T21:09:25.751Z,1.30
2018-02-24T21:11:54.099Z,1.53
2018-02-24T21:14:22.524Z,1.30
2018-02-24T21:16:51.234Z,1.53
2018-02-24T21:19:19.652Z,1.53
2018-02-24T21:21:48.107Z,1.87
2018-02-24T21:24:16.448Z,1.63
2018-02-24T21:26:44.811Z,1.40
2018-02-24T21:29:13.238Z,1.40
2018-02-24T21:31:41.742Z,1.80
2018-02-24T21:34:10.080Z,1.20
2018-02-24T21:36:38.420Z,2.00
2018-02-24T21:39:07.539Z,1.37
2018-02-24T21:41:36.724Z,1.27
2018-02-24T21:44:05.055Z,1.20
2018-02-24T21:46:34.151Z,1.30
2018-02-24T21:49:02.501Z,1.30
2018-02-24T21:51:30.905Z,1.57
2018-02-24T21:53:59.305Z,1.23
2018-02-24T21:56:27.666Z,1.80
2018-02-24T21:58:56.127Z,1.57
2018-02-24T22:01:25.256Z,1.60
2018-02-24T22:03:53.633Z,1.83
2018-02-24T22:06:22.406Z,1.70
2018-02-24T22:08:50.783Z,2.00
2018-02-24T22:11:19.162Z,1.80
2018-02-24T22:13:47.559Z,1.60
2018-02-24T22:16:15.916Z,1.60
2018-02-24T22:18:44.350Z,1.30
2018-02-24T22:21:12.689Z,1.63
2018-02-24T22:23:41.028Z,1.40
2018-02-24T22:26:09.390Z,1.10
2018-02-24T22:28:37.723Z,3.57
2018-02-24T22:31:06.405Z,4.80
2018-02-24T22:33:34.751Z,7.23
2018-02-24T22:36:03.086Z,2.33
2018-02-24T22:38:31.421Z,3.20
2018-02-24T22:40:59.785Z,2.50
2018-02-24T22:43:28.475Z,2.10
2018-02-24T22:45:56.825Z,2.43
2018-02-24T22:48:30.818Z,2.43
2018-02-24T22:50:59.909Z,1.97
2018-02-24T22:53:28.250Z,2.20
2018-02-24T22:55:56.604Z,2.17
2018-02-24T22:58:24.964Z,2.60
2018-02-24T23:00:53.443Z,1.60
2018-02-24T23:03:21.801Z,1.90
2018-02-24T23:05:50.299Z,1.70
2018-02-24T23:08:18.670Z,1.83
2018-02-24T23:10:47.786Z,1.77
2018-02-24T23:13:17.065Z,2.50
2018-02-24T23:15:45.461Z,2.30
2018-02-24T23:18:13.808Z,2.03
2018-02-24T23:20:42.151Z,1.90
2018-02-24T23:23:10.496Z,1.80
2018-02-24T23:25:38.916Z,1.90
2018-02-24T23:28:07.255Z,2.00
2018-02-24T23:30:36.370Z,1.70
2018-02-24T23:33:04.801Z,2.57
2018-02-24T23:35:33.199Z,2.10
2018-02-24T23:38:01.590Z,2.50
2018-02-24T23:40:30.010Z,1.50
2018-02-24T23:42:58.353Z,1.57
2018-02-24T23:45:26.698Z,1.93
2018-02-24T23:47:55.165Z,2.60
2018-02-24T23:50:23.598Z,2.23
2018-02-24T23:52:52.762Z,1.87
2018-02-24T23:55:21.185Z,1.43
2018-02-24T23:57:49.565Z,2.30
